Terminal Aerodrome Forecast
Issued by NWS

Home | Current Version | Previous Version | Text Only | Print | Product List | Glossary Off
Versions: 1 2 3 4 5 6 7 8 9 10 11 12 13 14 15 16

943
FTUS43 KIWX 231120
TAFSBN
TAF
KSBN 231120Z 2312/2412 06008KT P6SM SCT100 BKN250
     FM231800 09010KT P6SM BKN080
     FM240000 11008KT P6SM OVC035
     FM241000 09006KT P6SM OVC015=

USA.gov is the U.S. government's official web portal to all federal, state and local government web resources and services.